Point Vicente — WDB9763 — position and weather

sailwx.info

Track history (hours):
 
Tides and Currents Weather Stations Pressure Air Temp Water Temp Dewpoint Dewpoint Depression Visibility Wind Speed Wind Dir Waves Ship Positions

Point Vicente

More information available from US FCC via Universal Licensing System and Coast Guard Vessel Documentation Center.

Last reported at 2014-Aug-30 19:32 UTC. Time now 2014-Aug-30 20:35 UTC.
Position N 38°03' W 122°12'.

Length 32 m; draft 4.3 m.

Type: Tug. MMSI: 366982330.

Date/timePositionNaut miles runAvg speedWind from/ knotsBaromVisibWave heightAir tempDewpointWater temp
2014-Aug-30 19:32N 38°03' W 122°12'5 5.1
2014-Aug-30 18:33N 38°03' W 122°18'5 4.9
2014-Aug-30 17:33N 38°01' W 122°24'5 5.2
2014-Aug-30 16:33N 37°56' W 122°25'6 5.5
2014-Aug-30 15:33N 37°50' W 122°24'4 4.2
2014-Aug-30 14:33N 37°48' W 122°20'5 5.2
2014-Aug-30 13:33N 37°52' W 122°24'7 7.4
2014-Aug-30 12:33N 37°59' W 122°25'6 6.4
2014-Aug-30 11:33N 38°03' W 122°19'6 5.6
2014-Aug-30 10:33N 38°03' W 122°11'5 5.3
2014-Aug-30 09:33N 38°03' W 122°05'7 7.3
2014-Aug-30 08:33N 38°03' W 121°55'4 3.3
2014-Aug-30 07:29N 38°04' W 121°51'0 0.0
2014-Aug-30 06:29N 38°04' W 121°51'0 0.5
2014-Aug-30 05:33N 38°04' W 121°52'4 3.5
2014-Aug-30 04:32N 38°03' W 121°56'5 4.6
2014-Aug-30 03:32N 38°04' W 122°02'4 4.6
2014-Aug-30 02:33N 38°02' W 122°07'5 4.9
2014-Aug-30 01:33N 38°04' W 122°13'6 5.9
2014-Aug-30 00:33N 38°02' W 122°21'6 5.7
2014-Aug-29 23:33N 37°58' W 122°26'6 6.1
2014-Aug-29 22:33N 37°52' W 122°24'4 3.9
2014-Aug-29 21:33N 37°49' W 122°21'2 1.9
2014-Aug-29 20:34N 37°48' W 122°20'3 2.4
2014-Aug-29 19:31N 37°50' W 122°21'0 0.0
2014-Aug-29 18:31N 37°50' W 122°21'0 0.0
2014-Aug-29 17:31N 37°50' W 122°21'1 0.9
2014-Aug-29 16:33N 37°49' W 122°21'2 1.9
2014-Aug-29 15:33N 37°49' W 122°19'0 0.1
2014-Aug-29 14:33N 37°49' W 122°19'0 0.0
2014-Aug-29 13:33N 37°49' W 122°19'0 0.0
2014-Aug-29 12:33N 37°49' W 122°19'2 1.8
2014-Aug-29 11:33N 37°49' W 122°21'3 3.0
2014-Aug-29 10:33N 37°51' W 122°23'7 6.7
2014-Aug-29 09:33N 37°58' W 122°26'6 6.1
2014-Aug-29 08:33N 38°02' W 122°21'7 7.0
2014-Aug-29 07:33N 38°03' W 122°12'8 6.5
2014-Aug-29 06:21N 38°04' W 122°02'7 8.9
2014-Aug-29 05:33N 38°03' W 121°53'2 1.7
2014-Aug-29 04:33N 38°04' W 121°51'0 0.5
2014-Aug-29 03:33N 38°04' W 121°52'5 5.0
2014-Aug-29 02:29N 38°03' W 121°58'5 5.7
2014-Aug-29 01:33N 38°03' W 122°05'6 5.7
2014-Aug-29 00:33N 38°03' W 122°12'7 6.6
2014-Aug-28 23:33N 38°02' W 122°21'6 6.3
2014-Aug-28 22:33N 37°57' W 122°26'7 6.7
2014-Aug-28 21:34N 37°51' W 122°23'4 3.7
2014-Aug-28 20:34N 37°49' W 122°19'2 1.9
2014-Aug-28 19:34N 37°50' W 122°21'0 0.0
2014-Aug-28 18:31N 37°50' W 122°21'0 0.0
2014-Aug-28 17:31N 37°50' W 122°21'0 0.0
2014-Aug-28 16:31N 37°50' W 122°21'0 0.1
2014-Aug-28 15:31N 37°50' W 122°21'0 0.1
2014-Aug-28 14:31N 37°50' W 122°21'0 0.0
2014-Aug-28 13:31N 37°50' W 122°21'0 0.0
2014-Aug-28 12:31N 37°50' W 122°21'0 0.0
2014-Aug-28 11:31N 37°50' W 122°21'0 0.0
2014-Aug-28 10:31N 37°50' W 122°21'0 0.1
2014-Aug-28 09:31N 37°50' W 122°21'0 0.1
2014-Aug-28 08:33N 37°50' W 122°21'3 2.5
2014-Aug-28 07:34N 37°52' W 122°23'5 4.8
2014-Aug-28 06:34N 37°56' W 122°26'5 5.4
2014-Aug-28 05:33N 38°01' W 122°23'8 8.5
2014-Aug-28 04:34N 38°04' W 122°13'8 8.0
2014-Aug-28 03:31N 38°04' W 122°02'7 1.7
2014-Aug-27 23:33N 38°03' W 121°54'8 6.7
2014-Aug-27 22:20N 38°03' W 122°04'5 6.7
2014-Aug-27 21:33N 38°03' W 122°11'7 7.2
2014-Aug-27 20:33N 38°03' W 122°20'7 6.6
2014-Aug-27 19:33N 37°58' W 122°26'7 6.6
2014-Aug-27 18:33N 37°52' W 122°23'4 3.9
2014-Aug-27 17:33N 37°48' W 122°21'2 1.6
2014-Aug-27 16:33N 37°49' W 122°19'0 0.0
2014-Aug-27 15:32N 37°49' W 122°19'0 0.0
2014-Aug-27 14:32N 37°49' W 122°19'0 0.0
2014-Aug-27 13:32N 37°49' W 122°19'0 0.0
2014-Aug-27 12:29N 37°49' W 122°19'0 0.0
2014-Aug-27 11:32N 37°49' W 122°19'0 0.0
2014-Aug-27 10:32N 37°49' W 122°19'0 0.0
2014-Aug-27 09:29N 37°49' W 122°19'0 0.0
2014-Aug-27 08:32N 37°49' W 122°19'0 0.0
2014-Aug-27 07:32N 37°49' W 122°19'0 0.0
2014-Aug-27 06:32N 37°49' W 122°19'0 0.0
2014-Aug-27 05:32N 37°49' W 122°19'0 0.0
2014-Aug-27 04:32N 37°49' W 122°19'0 0.0
2014-Aug-27 03:32N 37°49' W 122°19'0 0.0
2014-Aug-27 02:33N 37°49' W 122°19'2 2.0
2014-Aug-27 01:33N 37°50' W 122°21'5 4.9
2014-Aug-27 00:34N 37°54' W 122°23'0 0.5
2014-Aug-26 23:32N 37°54' W 122°22'0 0.0
2014-Aug-26 22:32N 37°54' W 122°22'0 0.0
2014-Aug-26 21:32N 37°54' W 122°22'0 0.0
2014-Aug-26 20:32N 37°54' W 122°22'0 0.0
2014-Aug-26 19:32N 37°54' W 122°22'0 0.0
2014-Aug-26 18:32N 37°54' W 122°22'0 0.0
2014-Aug-26 17:32N 37°54' W 122°22'0 0.0
2014-Aug-26 16:32N 37°54' W 122°22'0 0.0
2014-Aug-26 15:32N 37°54' W 122°22'0 0.0
2014-Aug-26 14:32N 37°54' W 122°22'0 0.0
2014-Aug-26 13:32N 37°54' W 122°22'0 0.0
2014-Aug-26 12:32N 37°54' W 122°22'0 0.0
2014-Aug-26 11:32N 37°54' W 122°22'0 0.0
2014-Aug-26 10:32N 37°54' W 122°22'0 0.0
2014-Aug-26 09:32N 37°54' W 122°22'0 0.0
2014-Aug-26 08:32N 37°54' W 122°22'0 0.0
2014-Aug-26 07:32N 37°54' W 122°22'0 0.0
2014-Aug-26 06:32N 37°54' W 122°22'0 0.0
2014-Aug-26 05:32N 37°54' W 122°22'0 0.0
2014-Aug-26 04:32N 37°54' W 122°22'0 0.0
2014-Aug-26 03:32N 37°54' W 122°22'0 0.0
2014-Aug-26 02:32N 37°54' W 122°22'0 0.0
2014-Aug-26 01:32N 37°54' W 122°22'0 0.2
2014-Aug-26 00:33N 37°54' W 122°23'5 4.6
2014-Aug-25 23:33N 37°50' W 122°21'6 5.8
2014-Aug-25 22:34N 37°55' W 122°25'7 6.7
2014-Aug-25 21:33N 38°01' W 122°23'6 6.1
2014-Aug-25 20:32N 38°04' W 122°15'5 5.2
2014-Aug-25 19:31N 38°02' W 122°09'12 3.1
2014-Aug-25 15:33N 38°03' W 121°53'12 3.9
2014-Aug-25 12:33N 38°02' W 122°08'4 4.2
2014-Aug-25 11:32N 38°04' W 122°13'5 5.2
2014-Aug-25 10:33N 38°03' W 122°20'5 5.4
2014-Aug-25 09:33N 37°60' W 122°25'6 5.6
2014-Aug-25 08:34N 37°54' W 122°25'6 6.2
2014-Aug-25 07:34N 37°49' W 122°21'1 0.6
2014-Aug-25 06:33N 37°49' W 122°20'1 1.4
2014-Aug-25 05:31N 37°50' W 122°21'0 0.0
2014-Aug-25 04:28N 37°50' W 122°21'0 0.0
2014-Aug-25 03:33N 37°50' W 122°21'4 4.1
2014-Aug-25 02:34N 37°53' W 122°24'7 6.9
2014-Aug-25 01:34N 37°60' W 122°25'8 7.8
2014-Aug-25 00:34N 38°04' W 122°16'19 3.6
2014-Aug-24 19:15N 38°04' W 121°52'3 4.8
2014-Aug-24 18:33N 38°03' W 121°55'5 4.9
2014-Aug-24 17:33N 38°04' W 122°02'5 4.3
2014-Aug-24 16:24N 38°02' W 122°08'3 3.6
2014-Aug-24 15:31N 38°03' W 122°11'3 3.4
2014-Aug-24 14:33N 38°03' W 122°16'3 2.9
2014-Aug-24 13:33N 38°03' W 122°19'3 3.0
2014-Aug-24 12:33N 38°01' W 122°23'3 3.2
2014-Aug-24 11:33N 37°59' W 122°25'4 3.5
2014-Aug-24 10:33N 37°55' W 122°25'4 4.3
2014-Aug-24 09:33N 37°52' W 122°23'4 4.0
2014-Aug-24 08:30N 37°49' W 122°20'2 1.9
2014-Aug-24 07:32N 37°50' W 122°21'0 0.0
2014-Aug-24 06:32N 37°50' W 122°21'0 0.0
2014-Aug-24 05:32N 37°50' W 122°21'0 0.0
2014-Aug-24 04:32N 37°50' W 122°21'0 0.0
2014-Aug-24 03:26N 37°50' W 122°21'0 0.0
2014-Aug-24 02:32N 37°50' W 122°21'0 0.0
2014-Aug-24 01:29N 37°50' W 122°21'0 0.0
2014-Aug-24 00:32N 37°50' W 122°21'0 0.0
2014-Aug-23 23:32N 37°50' W 122°21'0 0.0
2014-Aug-23 22:32N 37°50' W 122°21'0 0.0
2014-Aug-23 21:32N 37°50' W 122°21'0 0.0
2014-Aug-23 20:33N 37°50' W 122°21'5 4.4
2014-Aug-23 19:31N 37°54' W 122°22'11 0.7
2014-Aug-23 03:33N 38°04' W 122°15'6 6.2
2014-Aug-23 02:33N 38°02' W 122°22'6 6.3
2014-Aug-23 01:33N 37°56' W 122°26'6 6.0
2014-Aug-23 00:33N 37°51' W 122°22'3 2.7
2014-Aug-22 23:34N 37°49' W 122°20'4 4.1
2014-Aug-22 22:34N 37°52' W 122°23'7 7.3
2014-Aug-22 21:33N 37°59' W 122°26'6 6.5
2014-Aug-22 20:33N 38°03' W 122°19'6 5.3
2014-Aug-22 19:30N 38°04' W 122°12'16 3.1
2014-Aug-22 14:25N 38°04' W 121°52'11 3.3
2014-Aug-22 11:14N 38°03' W 122°05'3 3.7
2014-Aug-22 10:33N 38°02' W 122°08'4 3.8
2014-Aug-22 09:33N 38°04' W 122°13'5 4.8
2014-Aug-22 08:33N 38°03' W 122°19'5 5.0
2014-Aug-22 07:34N 38°00' W 122°24'5 5.0
2014-Aug-22 06:34N 37°55' W 122°25'6 5.8
2014-Aug-22 05:33N 37°50' W 122°22'2 2.3
2014-Aug-22 04:34N 37°49' W 122°20'2 1.6
2014-Aug-22 03:33N 37°50' W 122°21'0 0.0
2014-Aug-22 02:28N 37°50' W 122°21'0 0.0
2014-Aug-22 01:28N 37°50' W 122°21'0 0.0
2014-Aug-22 00:31N 37°50' W 122°21'0 0.0
2014-Aug-21 23:31N 37°50' W 122°21'0 0.0
2014-Aug-21 22:31N 37°50' W 122°21'0 0.0
2014-Aug-21 21:28N 37°50' W 122°21'0 0.0
2014-Aug-21 20:28N 37°50' W 122°21'0 0.0
2014-Aug-21 19:31N 37°50' W 122°21'0 0.0
2014-Aug-21 18:28N 37°50' W 122°21'0 0.0
2014-Aug-21 17:31N 37°50' W 122°21'0 0.0
2014-Aug-21 16:31N 37°50' W 122°21'4 4.7
2014-Aug-21 15:34N 37°53' W 122°25'6 5.9
2014-Aug-21 14:33N 37°59' W 122°25'7 7.3
2014-Aug-21 13:33N 38°03' W 122°17'8 1.2
2014-Aug-21 07:14N 38°02' W 122°08'5 6.8
2014-Aug-21 06:33N 38°04' W 122°13'7 7.2
2014-Aug-21 05:33N 38°02' W 122°22'6 6.5
2014-Aug-21 04:34N 37°56' W 122°26'7 6.6
2014-Aug-21 03:34N 37°50' W 122°22'2 1.8
2014-Aug-21 02:34N 37°49' W 122°20'7 6.9
2014-Aug-21 01:34N 37°54' W 122°25'6 5.7
2014-Aug-21 00:34N 38°00' W 122°24'7 7.1
2014-Aug-20 23:33N 38°03' W 122°16'  
Track history (hours):
 
Tides and Currents Weather Stations Pressure Air Temp Water Temp Dewpoint Dewpoint Depression Visibility Wind Speed Wind Dir Waves Ship Positions

Point Vicente

More information available from US FCC via Universal Licensing System and Coast Guard Vessel Documentation Center.

Last reported at 2014-Aug-30 19:32 UTC. Time now 2014-Aug-30 20:35 UTC.
Position N 38°03' W 122°12'.

Length 32 m; draft 4.3 m.

Type: Tug. MMSI: 366982330.

Date/timePositionNaut miles runAvg speedWind from/ knotsBaromVisibWave heightAir tempDewpointWater temp
2014-Aug-30 19:32N 38°03' W 122°12'5 5.1
2014-Aug-30 18:33N 38°03' W 122°18'5 4.9
2014-Aug-30 17:33N 38°01' W 122°24'5 5.2
2014-Aug-30 16:33N 37°56' W 122°25'6 5.5
2014-Aug-30 15:33N 37°50' W 122°24'4 4.2
2014-Aug-30 14:33N 37°48' W 122°20'5 5.2
2014-Aug-30 13:33N 37°52' W 122°24'7 7.4
2014-Aug-30 12:33N 37°59' W 122°25'6 6.4
2014-Aug-30 11:33N 38°03' W 122°19'6 5.6
2014-Aug-30 10:33N 38°03' W 122°11'5 5.3
2014-Aug-30 09:33N 38°03' W 122°05'7 7.3
2014-Aug-30 08:33N 38°03' W 121°55'4 3.3
2014-Aug-30 07:29N 38°04' W 121°51'0 0.0
2014-Aug-30 06:29N 38°04' W 121°51'0 0.5
2014-Aug-30 05:33N 38°04' W 121°52'4 3.5
2014-Aug-30 04:32N 38°03' W 121°56'5 4.6
2014-Aug-30 03:32N 38°04' W 122°02'4 4.6
2014-Aug-30 02:33N 38°02' W 122°07'5 4.9
2014-Aug-30 01:33N 38°04' W 122°13'6 5.9
2014-Aug-30 00:33N 38°02' W 122°21'6 5.7
2014-Aug-29 23:33N 37°58' W 122°26'6 6.1
2014-Aug-29 22:33N 37°52' W 122°24'4 3.9
2014-Aug-29 21:33N 37°49' W 122°21'2 1.9
2014-Aug-29 20:34N 37°48' W 122°20'3 2.4
2014-Aug-29 19:31N 37°50' W 122°21'0 0.0
2014-Aug-29 18:31N 37°50' W 122°21'0 0.0
2014-Aug-29 17:31N 37°50' W 122°21'1 0.9
2014-Aug-29 16:33N 37°49' W 122°21'2 1.9
2014-Aug-29 15:33N 37°49' W 122°19'0 0.1
2014-Aug-29 14:33N 37°49' W 122°19'0 0.0
2014-Aug-29 13:33N 37°49' W 122°19'0 0.0
2014-Aug-29 12:33N 37°49' W 122°19'2 1.8
2014-Aug-29 11:33N 37°49' W 122°21'3 3.0
2014-Aug-29 10:33N 37°51' W 122°23'7 6.7
2014-Aug-29 09:33N 37°58' W 122°26'6 6.1
2014-Aug-29 08:33N 38°02' W 122°21'7 7.0
2014-Aug-29 07:33N 38°03' W 122°12'8 6.5
2014-Aug-29 06:21N 38°04' W 122°02'7 8.9
2014-Aug-29 05:33N 38°03' W 121°53'2 1.7
2014-Aug-29 04:33N 38°04' W 121°51'0 0.5
2014-Aug-29 03:33N 38°04' W 121°52'5 5.0
2014-Aug-29 02:29N 38°03' W 121°58'5 5.7
2014-Aug-29 01:33N 38°03' W 122°05'6 5.7
2014-Aug-29 00:33N 38°03' W 122°12'7 6.6
2014-Aug-28 23:33N 38°02' W 122°21'6 6.3
2014-Aug-28 22:33N 37°57' W 122°26'7 6.7
2014-Aug-28 21:34N 37°51' W 122°23'4 3.7
2014-Aug-28 20:34N 37°49' W 122°19'2 1.9
2014-Aug-28 19:34N 37°50' W 122°21'0 0.0
2014-Aug-28 18:31N 37°50' W 122°21'0 0.0
2014-Aug-28 17:31N 37°50' W 122°21'0 0.0
2014-Aug-28 16:31N 37°50' W 122°21'0 0.1
2014-Aug-28 15:31N 37°50' W 122°21'0 0.1
2014-Aug-28 14:31N 37°50' W 122°21'0 0.0
2014-Aug-28 13:31N 37°50' W 122°21'0 0.0
2014-Aug-28 12:31N 37°50' W 122°21'0 0.0
2014-Aug-28 11:31N 37°50' W 122°21'0 0.0
2014-Aug-28 10:31N 37°50' W 122°21'0 0.1
2014-Aug-28 09:31N 37°50' W 122°21'0 0.1
2014-Aug-28 08:33N 37°50' W 122°21'3 2.5
2014-Aug-28 07:34N 37°52' W 122°23'5 4.8
2014-Aug-28 06:34N 37°56' W 122°26'5 5.4
2014-Aug-28 05:33N 38°01' W 122°23'8 8.5
2014-Aug-28 04:34N 38°04' W 122°13'8 8.0
2014-Aug-28 03:31N 38°04' W 122°02'7 1.7
2014-Aug-27 23:33N 38°03' W 121°54'8 6.7
2014-Aug-27 22:20N 38°03' W 122°04'5 6.7
2014-Aug-27 21:33N 38°03' W 122°11'7 7.2
2014-Aug-27 20:33N 38°03' W 122°20'7 6.6
2014-Aug-27 19:33N 37°58' W 122°26'7 6.6
2014-Aug-27 18:33N 37°52' W 122°23'4 3.9
2014-Aug-27 17:33N 37°48' W 122°21'2 1.6
2014-Aug-27 16:33N 37°49' W 122°19'0 0.0
2014-Aug-27 15:32N 37°49' W 122°19'0 0.0
2014-Aug-27 14:32N 37°49' W 122°19'0 0.0
2014-Aug-27 13:32N 37°49' W 122°19'0 0.0
2014-Aug-27 12:29N 37°49' W 122°19'0 0.0
2014-Aug-27 11:32N 37°49' W 122°19'0 0.0
2014-Aug-27 10:32N 37°49' W 122°19'0 0.0
2014-Aug-27 09:29N 37°49' W 122°19'0 0.0
2014-Aug-27 08:32N 37°49' W 122°19'0 0.0
2014-Aug-27 07:32N 37°49' W 122°19'0 0.0
2014-Aug-27 06:32N 37°49' W 122°19'0 0.0
2014-Aug-27 05:32N 37°49' W 122°19'0 0.0
2014-Aug-27 04:32N 37°49' W 122°19'0 0.0
2014-Aug-27 03:32N 37°49' W 122°19'0 0.0
2014-Aug-27 02:33N 37°49' W 122°19'2 2.0
2014-Aug-27 01:33N 37°50' W 122°21'5 4.9
2014-Aug-27 00:34N 37°54' W 122°23'0 0.5
2014-Aug-26 23:32N 37°54' W 122°22'0 0.0
2014-Aug-26 22:32N 37°54' W 122°22'0 0.0
2014-Aug-26 21:32N 37°54' W 122°22'0 0.0
2014-Aug-26 20:32N 37°54' W 122°22'0 0.0
2014-Aug-26 19:32N 37°54' W 122°22'0 0.0
2014-Aug-26 18:32N 37°54' W 122°22'0 0.0
2014-Aug-26 17:32N 37°54' W 122°22'0 0.0
2014-Aug-26 16:32N 37°54' W 122°22'0 0.0
2014-Aug-26 15:32N 37°54' W 122°22'0 0.0
2014-Aug-26 14:32N 37°54' W 122°22'0 0.0
2014-Aug-26 13:32N 37°54' W 122°22'0 0.0
2014-Aug-26 12:32N 37°54' W 122°22'0 0.0
2014-Aug-26 11:32N 37°54' W 122°22'0 0.0
2014-Aug-26 10:32N 37°54' W 122°22'0 0.0
2014-Aug-26 09:32N 37°54' W 122°22'0 0.0
2014-Aug-26 08:32N 37°54' W 122°22'0 0.0
2014-Aug-26 07:32N 37°54' W 122°22'0 0.0
2014-Aug-26 06:32N 37°54' W 122°22'0 0.0
2014-Aug-26 05:32N 37°54' W 122°22'0 0.0
2014-Aug-26 04:32N 37°54' W 122°22'0 0.0
2014-Aug-26 03:32N 37°54' W 122°22'0 0.0
2014-Aug-26 02:32N 37°54' W 122°22'0 0.0
2014-Aug-26 01:32N 37°54' W 122°22'0 0.2
2014-Aug-26 00:33N 37°54' W 122°23'5 4.6
2014-Aug-25 23:33N 37°50' W 122°21'6 5.8
2014-Aug-25 22:34N 37°55' W 122°25'7 6.7
2014-Aug-25 21:33N 38°01' W 122°23'6 6.1
2014-Aug-25 20:32N 38°04' W 122°15'5 5.2
2014-Aug-25 19:31N 38°02' W 122°09'12 3.1
2014-Aug-25 15:33N 38°03' W 121°53'12 3.9
2014-Aug-25 12:33N 38°02' W 122°08'4 4.2
2014-Aug-25 11:32N 38°04' W 122°13'5 5.2
2014-Aug-25 10:33N 38°03' W 122°20'5 5.4
2014-Aug-25 09:33N 37°60' W 122°25'6 5.6
2014-Aug-25 08:34N 37°54' W 122°25'6 6.2
2014-Aug-25 07:34N 37°49' W 122°21'1 0.6
2014-Aug-25 06:33N 37°49' W 122°20'1 1.4
2014-Aug-25 05:31N 37°50' W 122°21'0 0.0
2014-Aug-25 04:28N 37°50' W 122°21'0 0.0
2014-Aug-25 03:33N 37°50' W 122°21'4 4.1
2014-Aug-25 02:34N 37°53' W 122°24'7 6.9
2014-Aug-25 01:34N 37°60' W 122°25'8 7.8
2014-Aug-25 00:34N 38°04' W 122°16'19 3.6
2014-Aug-24 19:15N 38°04' W 121°52'3 4.8
2014-Aug-24 18:33N 38°03' W 121°55'5 4.9
2014-Aug-24 17:33N 38°04' W 122°02'5 4.3
2014-Aug-24 16:24N 38°02' W 122°08'3 3.6
2014-Aug-24 15:31N 38°03' W 122°11'3 3.4
2014-Aug-24 14:33N 38°03' W 122°16'3 2.9
2014-Aug-24 13:33N 38°03' W 122°19'3 3.0
2014-Aug-24 12:33N 38°01' W 122°23'3 3.2
2014-Aug-24 11:33N 37°59' W 122°25'4 3.5
2014-Aug-24 10:33N 37°55' W 122°25'4 4.3
2014-Aug-24 09:33N 37°52' W 122°23'4 4.0
2014-Aug-24 08:30N 37°49' W 122°20'2 1.9
2014-Aug-24 07:32N 37°50' W 122°21'0 0.0
2014-Aug-24 06:32N 37°50' W 122°21'0 0.0
2014-Aug-24 05:32N 37°50' W 122°21'0 0.0
2014-Aug-24 04:32N 37°50' W 122°21'0 0.0
2014-Aug-24 03:26N 37°50' W 122°21'0 0.0
2014-Aug-24 02:32N 37°50' W 122°21'0 0.0
2014-Aug-24 01:29N 37°50' W 122°21'0 0.0
2014-Aug-24 00:32N 37°50' W 122°21'0 0.0
2014-Aug-23 23:32N 37°50' W 122°21'0 0.0
2014-Aug-23 22:32N 37°50' W 122°21'0 0.0
2014-Aug-23 21:32N 37°50' W 122°21'0 0.0
2014-Aug-23 20:33N 37°50' W 122°21'5 4.4
2014-Aug-23 19:31N 37°54' W 122°22'11 0.7
2014-Aug-23 03:33N 38°04' W 122°15'6 6.2
2014-Aug-23 02:33N 38°02' W 122°22'6 6.3
2014-Aug-23 01:33N 37°56' W 122°26'6 6.0
2014-Aug-23 00:33N 37°51' W 122°22'3 2.7
2014-Aug-22 23:34N 37°49' W 122°20'4 4.1
2014-Aug-22 22:34N 37°52' W 122°23'7 7.3
2014-Aug-22 21:33N 37°59' W 122°26'6 6.5
2014-Aug-22 20:33N 38°03' W 122°19'6 5.3
2014-Aug-22 19:30N 38°04' W 122°12'16 3.1
2014-Aug-22 14:25N 38°04' W 121°52'11 3.3
2014-Aug-22 11:14N 38°03' W 122°05'3 3.7
2014-Aug-22 10:33N 38°02' W 122°08'4 3.8
2014-Aug-22 09:33N 38°04' W 122°13'5 4.8
2014-Aug-22 08:33N 38°03' W 122°19'5 5.0
2014-Aug-22 07:34N 38°00' W 122°24'5 5.0
2014-Aug-22 06:34N 37°55' W 122°25'6 5.8
2014-Aug-22 05:33N 37°50' W 122°22'2 2.3
2014-Aug-22 04:34N 37°49' W 122°20'2 1.6
2014-Aug-22 03:33N 37°50' W 122°21'0 0.0
2014-Aug-22 02:28N 37°50' W 122°21'0 0.0
2014-Aug-22 01:28N 37°50' W 122°21'0 0.0
2014-Aug-22 00:31N 37°50' W 122°21'0 0.0
2014-Aug-21 23:31N 37°50' W 122°21'0 0.0
2014-Aug-21 22:31N 37°50' W 122°21'0 0.0
2014-Aug-21 21:28N 37°50' W 122°21'0 0.0
2014-Aug-21 20:28N 37°50' W 122°21'0 0.0
2014-Aug-21 19:31N 37°50' W 122°21'0 0.0
2014-Aug-21 18:28N 37°50' W 122°21'0 0.0
2014-Aug-21 17:31N 37°50' W 122°21'0 0.0
2014-Aug-21 16:31N 37°50' W 122°21'4 4.7
2014-Aug-21 15:34N 37°53' W 122°25'6 5.9
2014-Aug-21 14:33N 37°59' W 122°25'7 7.3
2014-Aug-21 13:33N 38°03' W 122°17'8 1.2
2014-Aug-21 07:14N 38°02' W 122°08'5 6.8
2014-Aug-21 06:33N 38°04' W 122°13'7 7.2
2014-Aug-21 05:33N 38°02' W 122°22'6 6.5
2014-Aug-21 04:34N 37°56' W 122°26'7 6.6
2014-Aug-21 03:34N 37°50' W 122°22'2 1.8
2014-Aug-21 02:34N 37°49' W 122°20'7 6.9
2014-Aug-21 01:34N 37°54' W 122°25'6 5.7
2014-Aug-21 00:34N 38°00' W 122°24'7 7.1
2014-Aug-20 23:33N 38°03' W 122°16'  

Dump ship's entire track history